Hancock, Vermont
Current Conditions -  °F | °C
As of 11:35 PM on Thursday 20 Nov 2014 (Local Time) from K6B0 Reporting Station
Scattered Clouds Scattered Clouds  
Wind Chill: 25°   Ceiling: Unl
Heat Index: 25°   Visibility: 10mi
Dew Point: 14°   Wind: 0mph
Humidity: 63%   Direction: NA
Pressure: 29.87"   Gusts: NA
Location:  43.93°N, 72.84°W
Report Text: K6B0 210435Z AUTO 00000KT 10SM SCT110 M04/M10 A2987 RMK AO2 T10391100
Loading
Personal Weather Stations






























Interactive Weather Map New forecast layout! Learn more

10-Day Weather Forecast

Advertisements
Track Severe Weather on mobile